sensor_id;sensor_type;location;lat;lon;timestamp;P1;durP1;ratioP1;P2;durP2;ratioP2
74614;SDS011;63121;51.458;-0.110;2023-02-23T00:00:41;11.45;;;4.40;;
74614;SDS011;63121;51.458;-0.110;2023-02-23T00:03:08;12.07;;;4.65;;
74614;SDS011;63121;51.458;-0.110;2023-02-23T00:05:34;10.73;;;3.70;;
74614;SDS011;63121;51.458;-0.110;2023-02-23T00:08:01;11.55;;;4.30;;
74614;SDS011;63121;51.458;-0.110;2023-02-23T00:10:26;11.55;;;3.83;;
74614;SDS011;63121;51.458;-0.110;2023-02-23T00:12:55;11.00;;;4.40;;
74614;SDS011;63121;51.458;-0.110;2023-02-23T00:15:26;12.15;;;4.22;;
74614;SDS011;63121;51.458;-0.110;2023-02-23T00:17:53;8.40;;;3.28;;
74614;SDS011;63121;51.458;-0.110;2023-02-23T00:20:23;11.90;;;4.45;;
74614;SDS011;63121;51.458;-0.110;2023-02-23T00:22:53;13.15;;;4.57;;
74614;SDS011;63121;51.458;-0.110;2023-02-23T00:25:19;12.18;;;4.65;;
74614;SDS011;63121;51.458;-0.110;2023-02-23T00:27:45;13.32;;;4.30;;
74614;SDS011;63121;51.458;-0.110;2023-02-23T00:30:11;9.73;;;3.33;;
74614;SDS011;63121;51.458;-0.110;2023-02-23T00:32:37;11.43;;;4.75;;
74614;SDS011;63121;51.458;-0.110;2023-02-23T00:35:03;11.43;;;4.53;;
74614;SDS011;63121;51.458;-0.110;2023-02-23T00:37:29;11.93;;;4.03;;
74614;SDS011;63121;51.458;-0.110;2023-02-23T00:39:55;12.07;;;4.10;;
74614;SDS011;63121;51.458;-0.110;2023-02-23T00:42:21;9.27;;;3.63;;
74614;SDS011;63121;51.458;-0.110;2023-02-23T00:44:47;14.70;;;4.97;;
74614;SDS011;63121;51.458;-0.110;2023-02-23T00:47:13;12.43;;;4.70;;
74614;SDS011;63121;51.458;-0.110;2023-02-23T00:49:39;10.48;;;3.92;;
74614;SDS011;63121;51.458;-0.110;2023-02-23T00:52:05;11.95;;;4.68;;
74614;SDS011;63121;51.458;-0.110;2023-02-23T00:54:30;12.10;;;4.30;;
74614;SDS011;63121;51.458;-0.110;2023-02-23T00:56:55;11.50;;;4.18;;
74614;SDS011;63121;51.458;-0.110;2023-02-23T00:59:21;9.07;;;3.70;;
74614;SDS011;63121;51.458;-0.110;2023-02-23T01:01:46;9.80;;;3.87;;
74614;SDS011;63121;51.458;-0.110;2023-02-23T01:04:12;10.75;;;3.75;;
74614;SDS011;63121;51.458;-0.110;2023-02-23T01:06:38;10.83;;;3.90;;
74614;SDS011;63121;51.458;-0.110;2023-02-23T01:09:05;11.30;;;4.53;;
74614;SDS011;63121;51.458;-0.110;2023-02-23T01:11:33;10.55;;;3.83;;
74614;SDS011;63121;51.458;-0.110;2023-02-23T01:13:58;12.45;;;5.03;;
74614;SDS011;63121;51.458;-0.110;2023-02-23T01:16:26;10.63;;;3.90;;
74614;SDS011;63121;51.458;-0.110;2023-02-23T01:18:54;10.93;;;4.03;;
74614;SDS011;63121;51.458;-0.110;2023-02-23T01:21:22;11.57;;;4.20;;
74614;SDS011;63121;51.458;-0.110;2023-02-23T01:23:50;10.60;;;3.72;;
74614;SDS011;63121;51.458;-0.110;2023-02-23T01:26:17;8.75;;;3.63;;
74614;SDS011;63121;51.458;-0.110;2023-02-23T01:28:47;11.30;;;4.20;;
74614;SDS011;63121;51.458;-0.110;2023-02-23T01:33:39;10.15;;;3.58;;
74614;SDS011;63121;51.458;-0.110;2023-02-23T01:36:05;10.25;;;3.85;;
74614;SDS011;63121;51.458;-0.110;2023-02-23T01:38:31;9.85;;;3.10;;
74614;SDS011;63121;51.458;-0.110;2023-02-23T01:40:56;9.43;;;3.42;;
74614;SDS011;63121;51.458;-0.110;2023-02-23T01:43:22;10.98;;;3.47;;
74614;SDS011;63121;51.458;-0.110;2023-02-23T01:45:51;9.07;;;3.60;;
74614;SDS011;63121;51.458;-0.110;2023-02-23T01:48:21;8.90;;;3.22;;
74614;SDS011;63121;51.458;-0.110;2023-02-23T01:53:42;9.20;;;3.30;;
74614;SDS011;63121;51.458;-0.110;2023-02-23T01:56:14;9.13;;;3.10;;
74614;SDS011;63121;51.458;-0.110;2023-02-23T01:58:45;6.75;;;2.35;;
74614;SDS011;63121;51.458;-0.110;2023-02-23T02:03:43;7.67;;;2.50;;
74614;SDS011;63121;51.458;-0.110;2023-02-23T02:06:13;7.32;;;2.28;;
74614;SDS011;63121;51.458;-0.110;2023-02-23T02:08:42;9.98;;;3.20;;
74614;SDS011;63121;51.458;-0.110;2023-02-23T02:11:13;6.80;;;2.70;;
74614;SDS011;63121;51.458;-0.110;2023-02-23T02:13:56;6.15;;;1.88;;
74614;SDS011;63121;51.458;-0.110;2023-02-23T02:16:39;7.18;;;2.15;;
74614;SDS011;63121;51.458;-0.110;2023-02-23T02:27:39;4.80;;;1.52;;
74614;SDS011;63121;51.458;-0.110;2023-02-23T02:38:45;9.00;;;2.27;;
74614;SDS011;63121;51.458;-0.110;2023-02-23T02:41:33;10.55;;;2.47;;
74614;SDS011;63121;51.458;-0.110;2023-02-23T02:44:10;9.00;;;3.20;;
74614;SDS011;63121;51.458;-0.110;2023-02-23T02:46:45;8.15;;;2.22;;
74614;SDS011;63121;51.458;-0.110;2023-02-23T02:54:48;10.00;;;2.60;;
74614;SDS011;63121;51.458;-0.110;2023-02-23T02:57:17;8.25;;;2.63;;
74614;SDS011;63121;51.458;-0.110;2023-02-23T02:59:48;8.73;;;2.47;;
74614;SDS011;63121;51.458;-0.110;2023-02-23T03:02:34;9.75;;;3.58;;
74614;SDS011;63121;51.458;-0.110;2023-02-23T03:05:22;8.52;;;2.65;;
74614;SDS011;63121;51.458;-0.110;2023-02-23T03:11:06;7.80;;;2.38;;
74614;SDS011;63121;51.458;-0.110;2023-02-23T03:19:47;7.28;;;2.00;;
74614;SDS011;63121;51.458;-0.110;2023-02-23T03:22:41;9.60;;;2.72;;
74614;SDS011;63121;51.458;-0.110;2023-02-23T03:28:44;7.85;;;2.47;;
74614;SDS011;63121;51.458;-0.110;2023-02-23T03:34:32;7.78;;;2.50;;
74614;SDS011;63121;51.458;-0.110;2023-02-23T03:37:26;8.25;;;2.10;;
74614;SDS011;63121;51.458;-0.110;2023-02-23T03:40:27;7.72;;;2.40;;
74614;SDS011;63121;51.458;-0.110;2023-02-23T03:43:21;6.65;;;2.05;;
74614;SDS011;63121;51.458;-0.110;2023-02-23T03:46:10;7.45;;;2.42;;
74614;SDS011;63121;51.458;-0.110;2023-02-23T03:48:57;5.30;;;1.77;;
74614;SDS011;63121;51.458;-0.110;2023-02-23T03:51:46;7.68;;;2.30;;
74614;SDS011;63121;51.458;-0.110;2023-02-23T03:54:35;6.00;;;2.17;;
74614;SDS011;63121;51.458;-0.110;2023-02-23T03:57:29;8.98;;;2.63;;
74614;SDS011;63121;51.458;-0.110;2023-02-23T04:00:24;8.43;;;2.85;;
74614;SDS011;63121;51.458;-0.110;2023-02-23T04:03:14;7.13;;;2.13;;
74614;SDS011;63121;51.458;-0.110;2023-02-23T04:06:00;5.50;;;2.28;;
74614;SDS011;63121;51.458;-0.110;2023-02-23T04:08:45;8.35;;;2.70;;
74614;SDS011;63121;51.458;-0.110;2023-02-23T04:14:42;8.07;;;2.60;;
74614;SDS011;63121;51.458;-0.110;2023-02-23T04:19:47;6.80;;;2.33;;
74614;SDS011;63121;51.458;-0.110;2023-02-23T04:22:13;7.65;;;2.38;;
74614;SDS011;63121;51.458;-0.110;2023-02-23T04:24:38;7.37;;;2.73;;
74614;SDS011;63121;51.458;-0.110;2023-02-23T04:27:04;7.65;;;2.80;;
74614;SDS011;63121;51.458;-0.110;2023-02-23T04:29:30;7.07;;;2.30;;
74614;SDS011;63121;51.458;-0.110;2023-02-23T04:31:55;8.10;;;2.53;;
74614;SDS011;63121;51.458;-0.110;2023-02-23T04:34:21;9.45;;;2.67;;
74614;SDS011;63121;51.458;-0.110;2023-02-23T04:36:46;8.63;;;2.40;;
74614;SDS011;63121;51.458;-0.110;2023-02-23T04:39:11;8.90;;;2.70;;
74614;SDS011;63121;51.458;-0.110;2023-02-23T04:41:37;8.43;;;2.40;;
74614;SDS011;63121;51.458;-0.110;2023-02-23T04:44:02;8.30;;;2.37;;
74614;SDS011;63121;51.458;-0.110;2023-02-23T04:46:29;11.68;;;2.88;;
74614;SDS011;63121;51.458;-0.110;2023-02-23T04:48:54;6.60;;;2.13;;
74614;SDS011;63121;51.458;-0.110;2023-02-23T04:51:19;9.82;;;2.72;;
74614;SDS011;63121;51.458;-0.110;2023-02-23T04:53:45;6.57;;;2.27;;
74614;SDS011;63121;51.458;-0.110;2023-02-23T04:56:10;8.73;;;3.03;;
74614;SDS011;63121;51.458;-0.110;2023-02-23T04:58:36;7.10;;;2.38;;
74614;SDS011;63121;51.458;-0.110;2023-02-23T05:01:07;7.43;;;2.47;;
74614;SDS011;63121;51.458;-0.110;2023-02-23T05:03:33;7.72;;;2.40;;
74614;SDS011;63121;51.458;-0.110;2023-02-23T05:06:00;6.80;;;2.38;;
74614;SDS011;63121;51.458;-0.110;2023-02-23T05:08:26;8.32;;;2.97;;
74614;SDS011;63121;51.458;-0.110;2023-02-23T05:10:51;7.10;;;2.30;;
74614;SDS011;63121;51.458;-0.110;2023-02-23T05:13:16;6.53;;;2.13;;
74614;SDS011;63121;51.458;-0.110;2023-02-23T05:15:42;5.07;;;1.93;;
74614;SDS011;63121;51.458;-0.110;2023-02-23T05:18:07;7.65;;;2.78;;
74614;SDS011;63121;51.458;-0.110;2023-02-23T05:20:33;9.35;;;2.50;;
74614;SDS011;63121;51.458;-0.110;2023-02-23T05:22:58;7.30;;;2.70;;
74614;SDS011;63121;51.458;-0.110;2023-02-23T05:25:24;9.68;;;2.72;;
74614;SDS011;63121;51.458;-0.110;2023-02-23T05:27:49;7.95;;;2.95;;
74614;SDS011;63121;51.458;-0.110;2023-02-23T05:30:15;7.22;;;2.58;;
74614;SDS011;63121;51.458;-0.110;2023-02-23T05:32:40;6.35;;;2.05;;
74614;SDS011;63121;51.458;-0.110;2023-02-23T05:35:06;7.82;;;2.35;;
74614;SDS011;63121;51.458;-0.110;2023-02-23T05:37:32;10.55;;;2.40;;
74614;SDS011;63121;51.458;-0.110;2023-02-23T05:39:58;7.18;;;2.25;;
74614;SDS011;63121;51.458;-0.110;2023-02-23T05:42:24;8.27;;;2.25;;
74614;SDS011;63121;51.458;-0.110;2023-02-23T05:44:49;6.78;;;2.42;;
74614;SDS011;63121;51.458;-0.110;2023-02-23T05:47:15;8.55;;;2.47;;
74614;SDS011;63121;51.458;-0.110;2023-02-23T05:49:40;7.35;;;2.28;;
74614;SDS011;63121;51.458;-0.110;2023-02-23T05:52:06;6.53;;;1.98;;
74614;SDS011;63121;51.458;-0.110;2023-02-23T05:54:32;6.65;;;2.35;;
74614;SDS011;63121;51.458;-0.110;2023-02-23T05:56:58;6.38;;;1.95;;
74614;SDS011;63121;51.458;-0.110;2023-02-23T05:59:23;7.30;;;2.03;;
74614;SDS011;63121;51.458;-0.110;2023-02-23T06:01:49;4.35;;;1.58;;
74614;SDS011;63121;51.458;-0.110;2023-02-23T06:04:14;8.20;;;2.25;;
74614;SDS011;63121;51.458;-0.110;2023-02-23T06:06:41;6.18;;;2.00;;
74614;SDS011;63121;51.458;-0.110;2023-02-23T06:09:07;6.90;;;2.30;;
74614;SDS011;63121;51.458;-0.110;2023-02-23T06:11:32;6.68;;;2.20;;
74614;SDS011;63121;51.458;-0.110;2023-02-23T06:13:58;10.07;;;2.47;;
74614;SDS011;63121;51.458;-0.110;2023-02-23T06:16:24;6.82;;;2.10;;
74614;SDS011;63121;51.458;-0.110;2023-02-23T06:21:16;9.17;;;2.47;;
74614;SDS011;63121;51.458;-0.110;2023-02-23T06:23:41;7.45;;;2.00;;
74614;SDS011;63121;51.458;-0.110;2023-02-23T06:26:07;5.93;;;1.90;;
74614;SDS011;63121;51.458;-0.110;2023-02-23T06:28:33;6.72;;;2.17;;
74614;SDS011;63121;51.458;-0.110;2023-02-23T06:30:59;6.50;;;2.10;;
74614;SDS011;63121;51.458;-0.110;2023-02-23T06:33:24;7.35;;;1.98;;
74614;SDS011;63121;51.458;-0.110;2023-02-23T06:35:50;7.80;;;2.03;;
74614;SDS011;63121;51.458;-0.110;2023-02-23T06:38:16;6.50;;;2.08;;
74614;SDS011;63121;51.458;-0.110;2023-02-23T06:40:42;5.88;;;1.80;;
74614;SDS011;63121;51.458;-0.110;2023-02-23T06:43:07;6.22;;;2.05;;
74614;SDS011;63121;51.458;-0.110;2023-02-23T06:45:33;4.15;;;1.50;;
74614;SDS011;63121;51.458;-0.110;2023-02-23T06:47:58;4.45;;;1.38;;
74614;SDS011;63121;51.458;-0.110;2023-02-23T06:50:25;4.45;;;1.40;;
74614;SDS011;63121;51.458;-0.110;2023-02-23T06:52:50;4.10;;;1.13;;
74614;SDS011;63121;51.458;-0.110;2023-02-23T06:55:16;5.03;;;1.30;;
74614;SDS011;63121;51.458;-0.110;2023-02-23T06:57:42;2.40;;;0.93;;
74614;SDS011;63121;51.458;-0.110;2023-02-23T07:00:08;3.47;;;1.27;;
74614;SDS011;63121;51.458;-0.110;2023-02-23T07:05:01;3.30;;;1.25;;
74614;SDS011;63121;51.458;-0.110;2023-02-23T07:07:27;1.70;;;0.93;;
74614;SDS011;63121;51.458;-0.110;2023-02-23T07:09:53;4.32;;;1.20;;
74614;SDS011;63121;51.458;-0.110;2023-02-23T07:12:18;4.25;;;1.30;;
74614;SDS011;63121;51.458;-0.110;2023-02-23T07:14:45;3.50;;;0.90;;
74614;SDS011;63121;51.458;-0.110;2023-02-23T07:17:10;4.22;;;1.33;;
74614;SDS011;63121;51.458;-0.110;2023-02-23T07:19:36;3.22;;;1.13;;
74614;SDS011;63121;51.458;-0.110;2023-02-23T07:22:01;4.47;;;1.02;;
74614;SDS011;63121;51.458;-0.110;2023-02-23T07:24:27;5.13;;;1.40;;
74614;SDS011;63121;51.458;-0.110;2023-02-23T07:26:52;4.18;;;1.50;;
74614;SDS011;63121;51.458;-0.110;2023-02-23T07:29:18;5.00;;;1.30;;
74614;SDS011;63121;51.458;-0.110;2023-02-23T07:31:44;3.60;;;1.30;;
74614;SDS011;63121;51.458;-0.110;2023-02-23T07:34:10;10.30;;;1.63;;
74614;SDS011;63121;51.458;-0.110;2023-02-23T07:36:36;7.05;;;1.42;;
74614;SDS011;63121;51.458;-0.110;2023-02-23T07:39:02;2.50;;;1.08;;
74614;SDS011;63121;51.458;-0.110;2023-02-23T07:41:28;3.90;;;1.38;;
74614;SDS011;63121;51.458;-0.110;2023-02-23T07:43:54;4.07;;;1.27;;
74614;SDS011;63121;51.458;-0.110;2023-02-23T07:46:19;4.80;;;1.43;;
74614;SDS011;63121;51.458;-0.110;2023-02-23T07:48:44;3.10;;;1.27;;
74614;SDS011;63121;51.458;-0.110;2023-02-23T07:51:14;3.67;;;1.30;;
74614;SDS011;63121;51.458;-0.110;2023-02-23T07:53:41;5.40;;;1.27;;
74614;SDS011;63121;51.458;-0.110;2023-02-23T07:56:07;3.97;;;1.40;;
74614;SDS011;63121;51.458;-0.110;2023-02-23T07:58:35;2.25;;;0.88;;
74614;SDS011;63121;51.458;-0.110;2023-02-23T08:01:04;4.35;;;1.55;;
74614;SDS011;63121;51.458;-0.110;2023-02-23T08:03:30;3.88;;;1.35;;
74614;SDS011;63121;51.458;-0.110;2023-02-23T08:05:55;3.35;;;1.10;;
74614;SDS011;63121;51.458;-0.110;2023-02-23T08:08:21;5.88;;;1.25;;
74614;SDS011;63121;51.458;-0.110;2023-02-23T08:10:46;3.63;;;1.10;;
74614;SDS011;63121;51.458;-0.110;2023-02-23T08:13:12;3.55;;;1.00;;
74614;SDS011;63121;51.458;-0.110;2023-02-23T08:15:39;3.72;;;1.00;;
74614;SDS011;63121;51.458;-0.110;2023-02-23T08:18:04;2.65;;;0.90;;
74614;SDS011;63121;51.458;-0.110;2023-02-23T08:20:30;2.47;;;1.00;;
74614;SDS011;63121;51.458;-0.110;2023-02-23T08:22:56;3.77;;;1.23;;
74614;SDS011;63121;51.458;-0.110;2023-02-23T08:25:22;2.10;;;0.88;;
74614;SDS011;63121;51.458;-0.110;2023-02-23T08:27:49;2.38;;;1.00;;
74614;SDS011;63121;51.458;-0.110;2023-02-23T08:30:22;4.25;;;1.23;;
74614;SDS011;63121;51.458;-0.110;2023-02-23T08:32:48;3.15;;;1.20;;
74614;SDS011;63121;51.458;-0.110;2023-02-23T08:35:14;3.47;;;0.95;;
74614;SDS011;63121;51.458;-0.110;2023-02-23T08:37:41;2.95;;;1.25;;
74614;SDS011;63121;51.458;-0.110;2023-02-23T08:40:06;4.97;;;1.17;;
74614;SDS011;63121;51.458;-0.110;2023-02-23T08:42:33;4.22;;;1.00;;
74614;SDS011;63121;51.458;-0.110;2023-02-23T08:44:58;3.85;;;1.00;;
74614;SDS011;63121;51.458;-0.110;2023-02-23T08:47:25;4.32;;;1.00;;
74614;SDS011;63121;51.458;-0.110;2023-02-23T08:49:51;2.33;;;0.75;;
74614;SDS011;63121;51.458;-0.110;2023-02-23T08:52:18;3.13;;;0.90;;
74614;SDS011;63121;51.458;-0.110;2023-02-23T08:54:44;2.42;;;0.93;;
74614;SDS011;63121;51.458;-0.110;2023-02-23T08:57:10;5.53;;;0.90;;
74614;SDS011;63121;51.458;-0.110;2023-02-23T08:59:35;3.60;;;0.77;;
74614;SDS011;63121;51.458;-0.110;2023-02-23T09:02:03;2.28;;;0.50;;
74614;SDS011;63121;51.458;-0.110;2023-02-23T09:04:32;0.52;;;0.52;;
74614;SDS011;63121;51.458;-0.110;2023-02-23T09:06:59;2.17;;;0.57;;
74614;SDS011;63121;51.458;-0.110;2023-02-23T09:09:25;2.40;;;0.65;;
74614;SDS011;63121;51.458;-0.110;2023-02-23T09:11:50;1.47;;;0.70;;
74614;SDS011;63121;51.458;-0.110;2023-02-23T09:14:15;3.13;;;0.87;;
74614;SDS011;63121;51.458;-0.110;2023-02-23T09:16:41;2.33;;;0.60;;
74614;SDS011;63121;51.458;-0.110;2023-02-23T09:21:33;2.37;;;0.57;;
74614;SDS011;63121;51.458;-0.110;2023-02-23T09:23:59;3.60;;;0.60;;
74614;SDS011;63121;51.458;-0.110;2023-02-23T09:26:25;2.63;;;0.80;;
74614;SDS011;63121;51.458;-0.110;2023-02-23T09:28:52;1.85;;;0.77;;
74614;SDS011;63121;51.458;-0.110;2023-02-23T09:31:19;5.68;;;1.08;;
74614;SDS011;63121;51.458;-0.110;2023-02-23T09:33:46;1.88;;;0.70;;
74614;SDS011;63121;51.458;-0.110;2023-02-23T09:36:12;3.55;;;0.63;;
74614;SDS011;63121;51.458;-0.110;2023-02-23T09:38:46;5.45;;;0.98;;
74614;SDS011;63121;51.458;-0.110;2023-02-23T09:46:40;6.03;;;1.52;;
74614;SDS011;63121;51.458;-0.110;2023-02-23T09:49:17;3.22;;;0.70;;
74614;SDS011;63121;51.458;-0.110;2023-02-23T09:51:54;3.97;;;1.00;;
74614;SDS011;63121;51.458;-0.110;2023-02-23T09:54:28;2.05;;;0.63;;
74614;SDS011;63121;51.458;-0.110;2023-02-23T09:56:58;7.55;;;1.02;;
74614;SDS011;63121;51.458;-0.110;2023-02-23T09:59:27;5.22;;;0.90;;
74614;SDS011;63121;51.458;-0.110;2023-02-23T10:07:25;2.35;;;0.70;;
74614;SDS011;63121;51.458;-0.110;2023-02-23T10:12:33;5.87;;;1.20;;
74614;SDS011;63121;51.458;-0.110;2023-02-23T10:16:21;4.20;;;1.02;;
74614;SDS011;63121;51.458;-0.110;2023-02-23T10:24:35;4.38;;;0.95;;
74614;SDS011;63121;51.458;-0.110;2023-02-23T10:27:17;3.03;;;0.70;;
74614;SDS011;63121;51.458;-0.110;2023-02-23T10:32:37;6.05;;;0.95;;
74614;SDS011;63121;51.458;-0.110;2023-02-23T10:35:12;6.95;;;1.58;;
74614;SDS011;63121;51.458;-0.110;2023-02-23T10:37:40;5.47;;;1.10;;
74614;SDS011;63121;51.458;-0.110;2023-02-23T10:40:05;5.13;;;0.90;;
74614;SDS011;63121;51.458;-0.110;2023-02-23T10:42:31;2.00;;;0.80;;
74614;SDS011;63121;51.458;-0.110;2023-02-23T10:44:58;5.75;;;1.00;;
74614;SDS011;63121;51.458;-0.110;2023-02-23T10:47:30;4.85;;;0.88;;
74614;SDS011;63121;51.458;-0.110;2023-02-23T10:49:59;4.22;;;1.20;;
74614;SDS011;63121;51.458;-0.110;2023-02-23T10:52:28;5.00;;;0.63;;
74614;SDS011;63121;51.458;-0.110;2023-02-23T10:54:57;4.50;;;1.17;;
74614;SDS011;63121;51.458;-0.110;2023-02-23T10:57:28;3.72;;;0.75;;
74614;SDS011;63121;51.458;-0.110;2023-02-23T11:00:07;3.08;;;0.85;;
74614;SDS011;63121;51.458;-0.110;2023-02-23T11:02:44;7.28;;;1.17;;
74614;SDS011;63121;51.458;-0.110;2023-02-23T11:08:07;5.65;;;1.23;;
74614;SDS011;63121;51.458;-0.110;2023-02-23T11:11:16;5.32;;;1.25;;
74614;SDS011;63121;51.458;-0.110;2023-02-23T11:13:49;3.40;;;1.10;;
74614;SDS011;63121;51.458;-0.110;2023-02-23T11:16:16;8.68;;;0.93;;
74614;SDS011;63121;51.458;-0.110;2023-02-23T11:18:51;2.63;;;0.70;;
74614;SDS011;63121;51.458;-0.110;2023-02-23T11:21:31;4.43;;;0.95;;
74614;SDS011;63121;51.458;-0.110;2023-02-23T11:24:18;2.70;;;0.75;;
74614;SDS011;63121;51.458;-0.110;2023-02-23T11:26:50;4.38;;;1.00;;
74614;SDS011;63121;51.458;-0.110;2023-02-23T11:31:54;2.50;;;1.20;;
74614;SDS011;63121;51.458;-0.110;2023-02-23T11:34:29;4.50;;;0.82;;
74614;SDS011;63121;51.458;-0.110;2023-02-23T11:37:04;5.57;;;1.05;;
74614;SDS011;63121;51.458;-0.110;2023-02-23T11:39:51;6.72;;;1.02;;
74614;SDS011;63121;51.458;-0.110;2023-02-23T11:42:22;2.95;;;0.90;;
74614;SDS011;63121;51.458;-0.110;2023-02-23T11:45:05;5.55;;;1.00;;
74614;SDS011;63121;51.458;-0.110;2023-02-23T11:47:43;8.80;;;1.08;;
74614;SDS011;63121;51.458;-0.110;2023-02-23T11:53:03;2.40;;;0.80;;
74614;SDS011;63121;51.458;-0.110;2023-02-23T11:55:31;1.00;;;0.52;;
74614;SDS011;63121;51.458;-0.110;2023-02-23T12:00:39;2.63;;;0.70;;
74614;SDS011;63121;51.458;-0.110;2023-02-23T12:03:04;3.33;;;0.90;;
74614;SDS011;63121;51.458;-0.110;2023-02-23T12:05:31;3.78;;;0.80;;
74614;SDS011;63121;51.458;-0.110;2023-02-23T12:10:48;2.55;;;0.52;;
74614;SDS011;63121;51.458;-0.110;2023-02-23T12:13:33;2.67;;;0.80;;
74614;SDS011;63121;51.458;-0.110;2023-02-23T12:21:16;2.63;;;0.90;;
74614;SDS011;63121;51.458;-0.110;2023-02-23T12:24:05;2.58;;;0.73;;
74614;SDS011;63121;51.458;-0.110;2023-02-23T12:26:49;2.88;;;0.60;;
74614;SDS011;63121;51.458;-0.110;2023-02-23T12:31:55;2.92;;;0.38;;
74614;SDS011;63121;51.458;-0.110;2023-02-23T12:36:58;2.28;;;0.65;;
74614;SDS011;63121;51.458;-0.110;2023-02-23T12:39:35;1.35;;;0.47;;
74614;SDS011;63121;51.458;-0.110;2023-02-23T12:42:13;4.15;;;0.90;;
74614;SDS011;63121;51.458;-0.110;2023-02-23T12:44:45;1.98;;;0.52;;
74614;SDS011;63121;51.458;-0.110;2023-02-23T12:47:33;1.55;;;0.63;;
74614;SDS011;63121;51.458;-0.110;2023-02-23T12:50:12;3.10;;;0.70;;
74614;SDS011;63121;51.458;-0.110;2023-02-23T12:52:53;2.25;;;0.50;;
74614;SDS011;63121;51.458;-0.110;2023-02-23T12:55:44;1.80;;;0.57;;
74614;SDS011;63121;51.458;-0.110;2023-02-23T12:58:28;3.22;;;0.95;;
74614;SDS011;63121;51.458;-0.110;2023-02-23T13:01:05;6.75;;;1.27;;
74614;SDS011;63121;51.458;-0.110;2023-02-23T13:09:26;2.05;;;0.70;;
74614;SDS011;63121;51.458;-0.110;2023-02-23T13:12:05;2.60;;;0.80;;
74614;SDS011;63121;51.458;-0.110;2023-02-23T13:20:03;3.50;;;1.30;;
74614;SDS011;63121;51.458;-0.110;2023-02-23T13:24:59;5.18;;;1.38;;
74614;SDS011;63121;51.458;-0.110;2023-02-23T13:27:28;1.73;;;0.95;;
74614;SDS011;63121;51.458;-0.110;2023-02-23T13:29:59;5.13;;;1.30;;
74614;SDS011;63121;51.458;-0.110;2023-02-23T13:32:27;3.88;;;1.35;;
74614;SDS011;63121;51.458;-0.110;2023-02-23T13:34:59;3.95;;;1.42;;
74614;SDS011;63121;51.458;-0.110;2023-02-23T13:37:28;5.40;;;1.23;;
74614;SDS011;63121;51.458;-0.110;2023-02-23T13:40:10;2.05;;;0.63;;
74614;SDS011;63121;51.458;-0.110;2023-02-23T13:45:48;3.28;;;0.82;;
74614;SDS011;63121;51.458;-0.110;2023-02-23T13:51:20;4.45;;;1.10;;
74614;SDS011;63121;51.458;-0.110;2023-02-23T13:56:24;6.05;;;1.15;;
74614;SDS011;63121;51.458;-0.110;2023-02-23T13:59:02;2.92;;;1.15;;
74614;SDS011;63121;51.458;-0.110;2023-02-23T14:01:37;4.28;;;1.42;;
74614;SDS011;63121;51.458;-0.110;2023-02-23T14:04:12;2.85;;;1.05;;
74614;SDS011;63121;51.458;-0.110;2023-02-23T14:06:48;3.70;;;0.98;;
74614;SDS011;63121;51.458;-0.110;2023-02-23T14:09:30;3.33;;;1.10;;
74614;SDS011;63121;51.458;-0.110;2023-02-23T14:12:05;8.30;;;1.60;;
74614;SDS011;63121;51.458;-0.110;2023-02-23T14:14:41;3.20;;;1.10;;
74614;SDS011;63121;51.458;-0.110;2023-02-23T14:19:41;6.90;;;1.65;;
74614;SDS011;63121;51.458;-0.110;2023-02-23T14:22:11;8.13;;;1.60;;
74614;SDS011;63121;51.458;-0.110;2023-02-23T14:24:41;3.92;;;1.00;;
74614;SDS011;63121;51.458;-0.110;2023-02-23T14:29:39;1.83;;;0.70;;
74614;SDS011;63121;51.458;-0.110;2023-02-23T14:34:43;5.70;;;1.10;;
74614;SDS011;63121;51.458;-0.110;2023-02-23T14:39:49;8.15;;;1.52;;
74614;SDS011;63121;51.458;-0.110;2023-02-23T14:42:18;3.25;;;0.82;;
74614;SDS011;63121;51.458;-0.110;2023-02-23T14:44:47;2.47;;;0.85;;
74614;SDS011;63121;51.458;-0.110;2023-02-23T14:47:25;4.63;;;0.93;;
74614;SDS011;63121;51.458;-0.110;2023-02-23T14:49:56;3.78;;;0.90;;
74614;SDS011;63121;51.458;-0.110;2023-02-23T14:52:34;4.25;;;1.60;;
74614;SDS011;63121;51.458;-0.110;2023-02-23T14:57:36;7.07;;;1.30;;
74614;SDS011;63121;51.458;-0.110;2023-02-23T15:02:36;4.35;;;1.10;;
74614;SDS011;63121;51.458;-0.110;2023-02-23T15:05:13;9.63;;;1.50;;
74614;SDS011;63121;51.458;-0.110;2023-02-23T15:07:42;3.92;;;1.20;;
74614;SDS011;63121;51.458;-0.110;2023-02-23T15:10:11;4.25;;;0.88;;
74614;SDS011;63121;51.458;-0.110;2023-02-23T15:12:42;7.93;;;1.30;;
74614;SDS011;63121;51.458;-0.110;2023-02-23T15:15:13;5.57;;;1.33;;
74614;SDS011;63121;51.458;-0.110;2023-02-23T15:17:42;7.63;;;1.35;;
74614;SDS011;63121;51.458;-0.110;2023-02-23T15:20:12;3.92;;;1.23;;
74614;SDS011;63121;51.458;-0.110;2023-02-23T15:22:48;7.88;;;1.38;;
74614;SDS011;63121;51.458;-0.110;2023-02-23T15:25:20;6.35;;;1.10;;
74614;SDS011;63121;51.458;-0.110;2023-02-23T15:27:48;5.32;;;1.30;;
74614;SDS011;63121;51.458;-0.110;2023-02-23T15:30:26;8.75;;;1.70;;
74614;SDS011;63121;51.458;-0.110;2023-02-23T15:33:03;6.78;;;1.17;;
74614;SDS011;63121;51.458;-0.110;2023-02-23T15:38:08;6.22;;;1.20;;
74614;SDS011;63121;51.458;-0.110;2023-02-23T15:40:34;7.03;;;1.35;;
74614;SDS011;63121;51.458;-0.110;2023-02-23T15:42:59;5.63;;;1.02;;
74614;SDS011;63121;51.458;-0.110;2023-02-23T15:47:52;5.18;;;1.35;;
74614;SDS011;63121;51.458;-0.110;2023-02-23T15:50:26;6.93;;;1.27;;
74614;SDS011;63121;51.458;-0.110;2023-02-23T15:52:57;6.68;;;1.52;;
74614;SDS011;63121;51.458;-0.110;2023-02-23T15:55:26;6.38;;;1.30;;
74614;SDS011;63121;51.458;-0.110;2023-02-23T15:57:56;5.15;;;1.30;;
74614;SDS011;63121;51.458;-0.110;2023-02-23T16:00:37;7.78;;;1.40;;
74614;SDS011;63121;51.458;-0.110;2023-02-23T16:03:05;8.57;;;1.35;;
74614;SDS011;63121;51.458;-0.110;2023-02-23T16:05:32;7.50;;;1.42;;
74614;SDS011;63121;51.458;-0.110;2023-02-23T16:08:06;8.77;;;1.42;;
74614;SDS011;63121;51.458;-0.110;2023-02-23T16:10:47;8.10;;;1.67;;
74614;SDS011;63121;51.458;-0.110;2023-02-23T16:13:16;9.57;;;2.42;;
74614;SDS011;63121;51.458;-0.110;2023-02-23T16:15:45;10.10;;;1.92;;
74614;SDS011;63121;51.458;-0.110;2023-02-23T16:18:16;14.70;;;2.00;;
74614;SDS011;63121;51.458;-0.110;2023-02-23T16:23:36;3.33;;;1.50;;
74614;SDS011;63121;51.458;-0.110;2023-02-23T16:28:33;4.93;;;1.33;;
74614;SDS011;63121;51.458;-0.110;2023-02-23T16:31:03;9.68;;;1.50;;
74614;SDS011;63121;51.458;-0.110;2023-02-23T16:33:39;5.60;;;1.33;;
74614;SDS011;63121;51.458;-0.110;2023-02-23T16:38:37;8.32;;;1.95;;
74614;SDS011;63121;51.458;-0.110;2023-02-23T16:41:22;11.52;;;1.98;;
74614;SDS011;63121;51.458;-0.110;2023-02-23T16:43:49;6.05;;;1.77;;
74614;SDS011;63121;51.458;-0.110;2023-02-23T16:46:16;5.53;;;1.40;;
74614;SDS011;63121;51.458;-0.110;2023-02-23T16:48:41;13.93;;;2.13;;
74614;SDS011;63121;51.458;-0.110;2023-02-23T16:51:10;10.48;;;2.22;;
74614;SDS011;63121;51.458;-0.110;2023-02-23T16:53:38;9.40;;;2.00;;
74614;SDS011;63121;51.458;-0.110;2023-02-23T16:56:04;9.07;;;1.98;;
74614;SDS011;63121;51.458;-0.110;2023-02-23T16:58:36;4.28;;;1.10;;
74614;SDS011;63121;51.458;-0.110;2023-02-23T17:03:28;4.57;;;1.35;;
74614;SDS011;63121;51.458;-0.110;2023-02-23T17:05:54;8.23;;;1.15;;
74614;SDS011;63121;51.458;-0.110;2023-02-23T17:08:20;5.93;;;1.55;;
74614;SDS011;63121;51.458;-0.110;2023-02-23T17:10:47;5.85;;;1.08;;
74614;SDS011;63121;51.458;-0.110;2023-02-23T17:13:22;5.57;;;0.98;;
74614;SDS011;63121;51.458;-0.110;2023-02-23T17:15:50;8.90;;;1.50;;
74614;SDS011;63121;51.458;-0.110;2023-02-23T17:18:21;1.90;;;0.77;;
74614;SDS011;63121;51.458;-0.110;2023-02-23T17:20:49;8.45;;;1.17;;
74614;SDS011;63121;51.458;-0.110;2023-02-23T17:23:18;5.22;;;1.20;;
74614;SDS011;63121;51.458;-0.110;2023-02-23T17:25:45;3.20;;;1.08;;
74614;SDS011;63121;51.458;-0.110;2023-02-23T17:28:10;14.38;;;1.50;;
74614;SDS011;63121;51.458;-0.110;2023-02-23T17:30:36;6.43;;;1.40;;